createdAt,value
2018-12-16T00:02:07.957Z,18.53
2018-12-16T00:04:36.606Z,19.47
2018-12-16T00:07:05.175Z,19.53
2018-12-16T00:09:33.918Z,18.80
2018-12-16T00:12:02.668Z,18.43
2018-12-16T00:14:31.075Z,18.13
2018-12-16T00:16:59.472Z,18.87
2018-12-16T00:19:28.043Z,18.33
2018-12-16T00:21:56.445Z,18.50
2018-12-16T00:24:25.055Z,17.90
2018-12-16T00:27:04.642Z,18.40
2018-12-16T00:29:33.024Z,17.97
2018-12-16T00:32:01.477Z,18.87
2018-12-16T00:34:29.991Z,17.97
2018-12-16T00:36:58.431Z,18.00
2018-12-16T00:39:26.863Z,19.97
2018-12-16T00:41:55.594Z,20.00
2018-12-16T00:44:24.019Z,18.73
2018-12-16T00:46:52.473Z,19.00
2018-12-16T00:49:21.039Z,19.13
2018-12-16T00:51:49.446Z,19.90
2018-12-16T00:54:17.843Z,18.80
2018-12-16T00:56:46.281Z,19.97
2018-12-16T00:59:14.704Z,20.53
2018-12-16T01:01:43.109Z,18.60
2018-12-16T01:04:11.545Z,18.77
2018-12-16T01:06:40.241Z,17.77
2018-12-16T01:09:08.799Z,18.47
2018-12-16T01:11:37.215Z,16.03
2018-12-16T01:14:05.752Z,16.90
2018-12-16T01:16:34.333Z,16.57
2018-12-16T01:19:02.738Z,17.37
2018-12-16T01:21:31.174Z,15.97
2018-12-16T01:23:59.571Z,16.80
2018-12-16T01:26:28.001Z,17.20
2018-12-16T01:28:56.403Z,16.97
2018-12-16T01:31:24.831Z,16.57
2018-12-16T01:33:53.234Z,17.70
2018-12-16T01:36:21.766Z,16.97
2018-12-16T01:38:50.214Z,17.20
2018-12-16T01:41:18.628Z,16.50
2018-12-16T01:43:47.068Z,16.07
2018-12-16T01:46:15.518Z,17.03
2018-12-16T01:48:43.925Z,16.60
2018-12-16T01:51:12.399Z,16.33
2018-12-16T01:53:40.815Z,17.53
2018-12-16T01:56:09.227Z,16.70
2018-12-16T01:58:37.650Z,17.73
2018-12-16T02:01:06.060Z,17.90
2018-12-16T02:03:34.508Z,16.40
2018-12-16T02:06:02.948Z,17.13
2018-12-16T02:08:31.374Z,17.90
2018-12-16T02:10:59.771Z,16.27
2018-12-16T02:13:28.207Z,18.00
2018-12-16T02:15:57.351Z,17.17
2018-12-16T02:18:25.765Z,16.27
2018-12-16T02:20:54.179Z,17.37
2018-12-16T02:23:22.591Z,19.40
2018-12-16T02:25:51.044Z,18.10
2018-12-16T02:28:19.521Z,17.20
2018-12-16T02:30:47.949Z,17.60
2018-12-16T02:33:16.349Z,18.07
2018-12-16T02:35:44.844Z,15.80
2018-12-16T02:38:13.257Z,16.57
2018-12-16T02:40:41.675Z,16.13
2018-12-16T02:43:10.070Z,16.80
2018-12-16T02:45:38.638Z,15.77
2018-12-16T02:48:07.061Z,17.40
2018-12-16T02:50:35.492Z,16.77
2018-12-16T02:53:04.725Z,16.97
2018-12-16T02:55:33.587Z,16.07
2018-12-16T02:58:02.004Z,17.27
2018-12-16T03:00:30.416Z,17.07
2018-12-16T03:02:58.852Z,18.07
2018-12-16T03:05:27.268Z,18.80
2018-12-16T03:07:55.711Z,18.03
2018-12-16T03:10:24.133Z,17.27
2018-12-16T03:12:52.569Z,17.23
2018-12-16T03:15:21.096Z,16.73
2018-12-16T03:17:49.536Z,15.33
2018-12-16T03:20:17.943Z,16.97
2018-12-16T03:22:46.361Z,17.63
2018-12-16T03:25:14.839Z,15.80
2018-12-16T03:27:43.252Z,17.10
2018-12-16T03:30:11.882Z,16.47
2018-12-16T03:32:40.276Z,15.60
2018-12-16T03:35:08.846Z,15.30
2018-12-16T03:37:37.459Z,16.30
2018-12-16T03:40:06.420Z,16.40
2018-12-16T03:42:35.167Z,16.03
2018-12-16T03:45:04.131Z,16.30
2018-12-16T03:47:32.552Z,16.13
2018-12-16T03:50:00.994Z,16.30
2018-12-16T03:52:29.418Z,15.97
2018-12-16T03:54:57.830Z,17.60
2018-12-16T03:57:26.240Z,16.33
2018-12-16T03:59:54.641Z,16.07
2018-12-16T04:02:23.137Z,16.60
2018-12-16T04:04:51.549Z,16.50
2018-12-16T04:07:20.567Z,14.80
2018-12-16T04:09:48.965Z,15.70
2018-12-16T04:12:17.389Z,16.07
2018-12-16T04:14:45.808Z,15.60
2018-12-16T04:17:14.335Z,16.60
2018-12-16T04:19:42.743Z,14.90
2018-12-16T04:22:11.288Z,15.30
2018-12-16T04:24:39.782Z,15.90
2018-12-16T04:27:08.198Z,15.53
2018-12-16T04:29:36.621Z,17.20
2018-12-16T04:32:05.033Z,16.63
2018-12-16T04:34:33.459Z,15.87
2018-12-16T04:37:01.875Z,16.47
2018-12-16T04:39:30.415Z,17.27
2018-12-16T04:41:58.841Z,17.00
2018-12-16T04:44:27.261Z,16.47
2018-12-16T04:46:55.691Z,15.97
2018-12-16T04:49:24.084Z,15.73
2018-12-16T04:51:52.528Z,15.93
2018-12-16T04:54:20.968Z,15.63
2018-12-16T04:56:49.381Z,17.27
2018-12-16T04:59:17.795Z,16.10
2018-12-16T05:01:46.219Z,15.97
2018-12-16T05:04:14.631Z,15.80
2018-12-16T05:06:43.058Z,15.20
2018-12-16T05:09:11.456Z,15.97
2018-12-16T05:11:39.856Z,15.73
2018-12-16T05:14:08.285Z,15.87
2018-12-16T05:16:36.712Z,16.00
2018-12-16T05:19:05.234Z,16.27
2018-12-16T05:21:33.638Z,16.37
2018-12-16T05:24:02.050Z,16.03
2018-12-16T05:26:30.459Z,15.27
2018-12-16T05:28:58.981Z,16.37
2018-12-16T05:31:27.408Z,15.83
2018-12-16T05:33:55.822Z,16.17
2018-12-16T05:36:24.240Z,16.43
2018-12-16T05:38:52.655Z,16.17
2018-12-16T05:41:21.201Z,14.80
2018-12-16T05:43:49.643Z,16.53
2018-12-16T05:46:18.072Z,15.00
2018-12-16T05:48:46.612Z,15.17
2018-12-16T05:51:15.038Z,16.57
2018-12-16T05:53:48.598Z,16.37
2018-12-16T05:56:13.872Z,15.87
2018-12-16T05:58:42.323Z,16.17
2018-12-16T06:01:10.731Z,16.70
2018-12-16T06:03:39.153Z,17.20
2018-12-16T06:06:07.567Z,16.00
2018-12-16T06:08:36.013Z,16.80
2018-12-16T06:11:04.567Z,16.83
2018-12-16T06:13:32.998Z,17.37
2018-12-16T06:16:01.410Z,17.10
2018-12-16T06:18:29.804Z,16.30
2018-12-16T06:20:58.242Z,17.07
2018-12-16T06:23:26.755Z,16.20
2018-12-16T06:25:55.164Z,15.70
2018-12-16T06:28:23.580Z,16.67
2018-12-16T06:30:52.436Z,16.07
2018-12-16T06:33:20.856Z,16.83
2018-12-16T06:35:49.296Z,16.63
2018-12-16T06:38:17.700Z,17.17
2018-12-16T06:40:46.193Z,17.27
2018-12-16T06:43:14.764Z,18.30
2018-12-16T06:45:43.163Z,17.90
2018-12-16T06:48:11.624Z,16.10
2018-12-16T06:50:40.032Z,17.97
2018-12-16T06:53:08.462Z,17.10
2018-12-16T06:55:43.134Z,16.97
2018-12-16T06:58:07.420Z,17.03
2018-12-16T07:00:35.834Z,19.63
2018-12-16T07:03:04.252Z,18.97
2018-12-16T07:05:32.687Z,18.67
2018-12-16T07:08:01.204Z,18.70
2018-12-16T07:10:29.836Z,17.53
2018-12-16T07:12:58.244Z,16.47
2018-12-16T07:15:26.655Z,18.53
2018-12-16T07:17:55.107Z,18.77
2018-12-16T07:20:23.526Z,20.13
2018-12-16T07:22:51.930Z,20.20
2018-12-16T07:25:20.364Z,19.23
2018-12-16T07:27:48.788Z,18.40
2018-12-16T07:30:20.095Z,16.87
2018-12-16T07:32:48.549Z,17.10
2018-12-16T07:35:17.026Z,18.60
2018-12-16T07:37:45.459Z,19.43
2018-12-16T07:40:13.875Z,17.90
2018-12-16T07:42:42.296Z,16.83
2018-12-16T07:45:11.030Z,16.17
2018-12-16T07:47:39.472Z,16.80
2018-12-16T07:50:09.124Z,16.13
2018-12-16T07:52:37.554Z,15.37
2018-12-16T07:55:06.444Z,17.73
2018-12-16T07:57:35.014Z,16.60
2018-12-16T08:00:04.027Z,16.33
2018-12-16T08:02:32.656Z,15.73
2018-12-16T08:05:01.089Z,15.30
2018-12-16T08:07:29.534Z,15.13
2018-12-16T08:09:58.054Z,15.43
2018-12-16T08:12:26.637Z,18.20
2018-12-16T08:14:55.086Z,18.57
2018-12-16T08:17:23.493Z,16.80
2018-12-16T08:19:51.922Z,16.30
2018-12-16T08:22:20.329Z,15.27
2018-12-16T08:24:48.724Z,15.57
2018-12-16T08:27:17.136Z,15.30
2018-12-16T08:29:45.762Z,14.67
2018-12-16T08:32:14.199Z,15.63
2018-12-16T08:34:42.581Z,14.40
2018-12-16T08:37:11.009Z,14.40
2018-12-16T08:39:39.405Z,14.00
2018-12-16T08:42:07.888Z,15.30
2018-12-16T08:44:36.335Z,14.60
2018-12-16T08:47:04.785Z,14.60
2018-12-16T08:49:33.211Z,14.63
2018-12-16T08:52:01.623Z,14.77
2018-12-16T08:54:30.390Z,15.10
2018-12-16T08:56:58.869Z,14.73
2018-12-16T08:59:27.249Z,14.20
2018-12-16T09:01:55.674Z,14.17
2018-12-16T09:04:24.183Z,14.77
2018-12-16T09:06:52.589Z,15.20
2018-12-16T09:09:21.457Z,17.00
2018-12-16T09:11:49.876Z,15.67
2018-12-16T09:14:18.307Z,14.47
2018-12-16T09:16:46.700Z,14.37
2018-12-16T09:19:15.110Z,13.60
2018-12-16T09:21:43.514Z,12.90
2018-12-16T09:24:12.010Z,12.60
2018-12-16T09:26:40.515Z,13.03
2018-12-16T09:29:08.992Z,14.77
2018-12-16T09:31:37.405Z,14.27
2018-12-16T09:34:05.879Z,13.17
2018-12-16T09:36:34.314Z,14.10
2018-12-16T09:39:02.847Z,13.80
2018-12-16T09:41:31.419Z,14.03
2018-12-16T09:43:59.842Z,13.37
2018-12-16T09:46:29.940Z,12.17
2018-12-16T09:48:58.549Z,13.07
2018-12-16T09:51:26.970Z,15.73
2018-12-16T09:53:55.480Z,14.27
2018-12-16T09:56:23.929Z,12.80
2018-12-16T09:58:52.390Z,13.40
2018-12-16T10:01:20.924Z,11.60
2018-12-16T10:03:49.396Z,11.03
2018-12-16T10:06:18.300Z,11.83
2018-12-16T10:08:46.756Z,10.73
2018-12-16T10:11:15.180Z,10.50
2018-12-16T10:13:43.604Z,10.90
2018-12-16T10:16:12.037Z,11.00
2018-12-16T10:18:40.586Z,10.33
2018-12-16T10:21:09.002Z,10.10
2018-12-16T10:23:37.467Z,9.90
2018-12-16T10:26:06.094Z,10.93
2018-12-16T10:28:34.672Z,10.43
2018-12-16T10:31:03.146Z,10.17
2018-12-16T10:33:31.677Z,10.00
2018-12-16T10:36:00.159Z,11.90
2018-12-16T10:38:28.568Z,11.13
2018-12-16T10:40:57.024Z,12.87
2018-12-16T10:43:25.440Z,11.53
2018-12-16T10:45:53.874Z,10.20
2018-12-16T10:48:22.292Z,10.40
2018-12-16T10:50:50.762Z,10.53
2018-12-16T10:53:19.205Z,9.93
2018-12-16T10:55:47.643Z,9.77
2018-12-16T10:58:16.247Z,10.37
2018-12-16T11:00:50.266Z,9.27
2018-12-16T11:03:18.809Z,9.77
2018-12-16T11:05:47.274Z,9.67
2018-12-16T11:08:15.709Z,9.93
2018-12-16T11:10:44.177Z,9.33
2018-12-16T11:13:18.927Z,10.20
2018-12-16T11:15:47.409Z,10.40
2018-12-16T11:18:15.861Z,10.00
2018-12-16T11:20:44.320Z,10.67
2018-12-16T11:23:13.204Z,11.50
2018-12-16T11:25:46.644Z,10.97
2018-12-16T11:28:15.063Z,11.40
2018-12-16T11:30:43.695Z,11.00
2018-12-16T11:33:12.169Z,11.30
2018-12-16T11:35:40.643Z,12.03
2018-12-16T11:38:09.223Z,11.60
2018-12-16T11:40:37.861Z,11.43
2018-12-16T11:43:06.487Z,10.13
2018-12-16T11:45:35.010Z,9.83
2018-12-16T11:48:03.599Z,10.53
2018-12-16T11:50:32.306Z,9.83
2018-12-16T11:53:00.989Z,10.70
2018-12-16T11:55:30.118Z,10.33
2018-12-16T11:57:58.647Z,10.20
2018-12-16T12:00:27.612Z,9.63
2018-12-16T12:02:56.122Z,11.50
2018-12-16T12:05:24.705Z,10.73
2018-12-16T12:07:53.396Z,10.40
2018-12-16T12:10:22.578Z,10.10
2018-12-16T12:12:51.091Z,9.97
2018-12-16T12:15:19.612Z,9.73
2018-12-16T12:17:48.136Z,9.00
2018-12-16T12:20:16.604Z,9.17
2018-12-16T12:22:45.226Z,8.43
2018-12-16T12:25:19.771Z,9.33
2018-12-16T12:27:44.384Z,8.73
2018-12-16T12:30:13.003Z,9.13
2018-12-16T12:32:41.652Z,8.97
2018-12-16T12:35:10.610Z,9.57
2018-12-16T12:37:39.399Z,9.23
2018-12-16T12:40:08.091Z,9.53
2018-12-16T12:42:37.305Z,9.70
2018-12-16T12:45:06.253Z,10.53
2018-12-16T12:47:34.740Z,9.97
2018-12-16T12:50:03.262Z,10.10
2018-12-16T12:52:31.769Z,10.07
2018-12-16T12:55:01.116Z,9.63
2018-12-16T12:57:30.279Z,10.77
2018-12-16T12:59:58.765Z,9.50
2018-12-16T13:02:28.331Z,10.20
2018-12-16T13:04:56.814Z,10.83
2018-12-16T13:07:25.310Z,9.20
2018-12-16T13:09:53.795Z,10.70
2018-12-16T13:12:22.337Z,9.87
2018-12-16T13:14:50.901Z,9.90
2018-12-16T13:17:19.453Z,8.67
2018-12-16T13:19:47.949Z,8.97
2018-12-16T13:22:16.549Z,8.63
2018-12-16T13:24:57.263Z,9.03
2018-12-16T13:27:25.771Z,9.20
2018-12-16T13:29:54.249Z,11.27
2018-12-16T13:32:23.785Z,10.33
2018-12-16T13:34:52.279Z,9.77
2018-12-16T13:37:20.808Z,9.70
2018-12-16T13:39:49.332Z,10.00
2018-12-16T13:42:17.869Z,9.63
2018-12-16T13:44:46.608Z,10.00
2018-12-16T13:47:15.350Z,9.80
2018-12-16T13:49:45.280Z,9.63
2018-12-16T13:52:13.759Z,9.93
2018-12-16T13:54:42.503Z,9.03
2018-12-16T13:57:10.983Z,9.20
2018-12-16T13:59:39.485Z,9.50
2018-12-16T14:02:08.011Z,8.60
2018-12-16T14:04:36.614Z,8.77
2018-12-16T14:07:05.498Z,9.60
2018-12-16T14:09:34.874Z,9.70
2018-12-16T14:12:04.208Z,9.10
2018-12-16T14:14:32.786Z,8.77
2018-12-16T14:17:01.311Z,8.83
2018-12-16T14:19:29.865Z,16.90
2018-12-16T14:21:58.454Z,9.70
2018-12-16T14:24:27.182Z,9.03
2018-12-16T14:26:55.875Z,13.07
2018-12-16T14:29:24.455Z,9.17
2018-12-16T14:31:52.979Z,8.97
2018-12-16T14:34:21.464Z,8.07
2018-12-16T14:36:49.992Z,9.67
2018-12-16T14:39:18.456Z,9.10
2018-12-16T14:41:47.066Z,9.13
2018-12-16T14:44:15.572Z,9.00
2018-12-16T14:46:44.962Z,8.53
2018-12-16T14:49:13.464Z,8.97
2018-12-16T14:51:41.920Z,8.47
2018-12-16T14:54:10.407Z,8.20
2018-12-16T14:56:39.895Z,8.90
2018-12-16T14:59:08.420Z,8.40
2018-12-16T15:01:36.899Z,8.30
2018-12-16T15:04:05.425Z,8.90
2018-12-16T15:06:33.916Z,9.07
2018-12-16T15:09:02.528Z,8.93
2018-12-16T15:11:31.059Z,8.87
2018-12-16T15:13:59.702Z,9.43
2018-12-16T15:16:28.208Z,9.30
2018-12-16T15:18:56.866Z,9.17
2018-12-16T15:21:25.550Z,9.40
2018-12-16T15:23:54.118Z,8.53
2018-12-16T15:26:23.266Z,9.33
2018-12-16T15:28:51.724Z,9.73
2018-12-16T15:31:20.564Z,8.87
2018-12-16T15:33:49.039Z,8.90
2018-12-16T15:36:17.536Z,10.77
2018-12-16T15:38:46.006Z,9.53
2018-12-16T15:41:14.563Z,9.80
2018-12-16T15:43:43.970Z,9.60
2018-12-16T15:46:13.443Z,10.07
2018-12-16T15:48:41.960Z,9.87
2018-12-16T15:51:10.464Z,9.73
2018-12-16T15:56:10.273Z,9.40
2018-12-16T15:58:38.804Z,9.17
2018-12-16T16:01:07.311Z,10.00
2018-12-16T16:03:35.820Z,8.77
2018-12-16T16:06:04.376Z,9.50
2018-12-16T16:08:32.940Z,9.47
2018-12-16T16:11:02.153Z,9.30
2018-12-16T16:13:31.165Z,9.80
2018-12-16T16:15:59.660Z,10.50
2018-12-16T16:18:28.435Z,10.03
2018-12-16T16:20:57.116Z,9.77
2018-12-16T16:23:26.276Z,9.70
2018-12-16T16:25:54.816Z,10.37
2018-12-16T16:28:24.601Z,10.40
2018-12-16T16:30:54.363Z,9.83
2018-12-16T16:33:23.208Z,10.70
2018-12-16T16:35:51.836Z,10.47
2018-12-16T16:38:27.215Z,11.50
2018-12-16T16:40:55.916Z,11.07
2018-12-16T16:43:24.945Z,11.40
2018-12-16T16:45:54.393Z,11.83
2018-12-16T16:48:23.052Z,11.50
2018-12-16T16:50:53.353Z,11.60
2018-12-16T16:53:22.169Z,11.73
2018-12-16T16:55:51.010Z,10.90
2018-12-16T16:58:19.613Z,12.83
2018-12-16T17:00:48.425Z,14.13
2018-12-16T17:03:16.938Z,13.47
2018-12-16T17:05:45.769Z,13.00
2018-12-16T17:08:14.363Z,13.60
2018-12-16T17:10:43.005Z,13.90
2018-12-16T17:13:11.516Z,14.97
2018-12-16T17:15:40.068Z,15.10
2018-12-16T17:18:08.593Z,13.63
2018-12-16T17:20:37.145Z,15.07
2018-12-16T17:23:05.647Z,14.97
2018-12-16T17:25:34.811Z,18.30
2018-12-16T17:28:03.371Z,15.80
2018-12-16T17:30:38.609Z,16.43
2018-12-16T17:33:07.555Z,18.93
2018-12-16T17:35:36.485Z,20.73
2018-12-16T17:38:05.012Z,19.37
2018-12-16T17:40:33.537Z,19.17
2018-12-16T17:43:02.059Z,16.40
2018-12-16T17:45:30.574Z,15.20
2018-12-16T17:47:59.124Z,16.30
2018-12-16T17:50:27.626Z,15.87
2018-12-16T17:52:56.474Z,15.03
2018-12-16T17:55:24.982Z,17.13
2018-12-16T17:57:53.601Z,16.53
2018-12-16T18:00:22.565Z,15.37
2018-12-16T18:02:51.829Z,16.43
2018-12-16T18:05:22.277Z,17.27
2018-12-16T18:07:51.876Z,17.87
2018-12-16T18:10:20.952Z,19.10
2018-12-16T18:12:50.253Z,17.63
2018-12-16T18:15:19.456Z,18.03
2018-12-16T18:17:47.977Z,18.27
2018-12-16T18:20:16.561Z,18.30
2018-12-16T18:22:45.696Z,17.73
2018-12-16T18:25:14.919Z,16.93
2018-12-16T18:27:43.457Z,17.67
2018-12-16T18:30:12.395Z,17.63
2018-12-16T18:32:41.719Z,18.40
2018-12-16T18:35:10.682Z,20.17
2018-12-16T18:37:39.635Z,21.50
2018-12-16T18:40:09.926Z,22.17
2018-12-16T18:42:40.044Z,23.43
2018-12-16T18:45:08.832Z,23.03
2018-12-16T18:47:37.602Z,20.97
2018-12-16T18:50:07.771Z,22.00
2018-12-16T18:52:37.200Z,21.67
2018-12-16T18:55:08.126Z,21.97
2018-12-16T18:57:37.195Z,22.13
2018-12-16T19:00:06.778Z,21.47
2018-12-16T19:02:36.183Z,25.03
2018-12-16T19:05:05.290Z,20.83
2018-12-16T19:07:34.070Z,22.40
2018-12-16T19:10:02.873Z,24.30
2018-12-16T19:12:32.221Z,21.10
2018-12-16T19:15:02.066Z,19.77
2018-12-16T19:17:35.214Z,22.33
2018-12-16T19:20:05.499Z,21.63
2018-12-16T19:22:34.024Z,21.63
2018-12-16T19:25:02.746Z,24.63
2018-12-16T19:27:31.752Z,22.03
2018-12-16T19:30:00.372Z,22.93
2018-12-16T19:32:29.136Z,23.37
2018-12-16T19:34:58.356Z,22.30
2018-12-16T19:37:27.430Z,20.57
2018-12-16T19:39:56.242Z,19.33
2018-12-16T19:42:24.969Z,17.47
2018-12-16T19:44:53.818Z,21.23
2018-12-16T19:47:23.530Z,20.00
2018-12-16T19:49:52.376Z,19.03
2018-12-16T19:52:23.077Z,19.20
2018-12-16T19:54:53.362Z,18.07
2018-12-16T19:57:22.274Z,18.23
2018-12-16T19:59:52.676Z,21.07
2018-12-16T20:02:22.606Z,18.63
2018-12-16T20:04:56.967Z,19.33
2018-12-16T20:07:27.760Z,20.60
2018-12-16T20:09:56.597Z,19.97
2018-12-16T20:12:26.835Z,21.40
2018-12-16T20:14:56.803Z,21.43
2018-12-16T20:17:27.364Z,19.43
2018-12-16T20:19:56.516Z,19.70
2018-12-16T20:22:26.356Z,19.60
2018-12-16T20:24:55.332Z,18.70
2018-12-16T20:27:24.443Z,18.83
2018-12-16T20:29:53.530Z,17.87
2018-12-16T20:32:23.150Z,18.83
2018-12-16T20:34:52.439Z,18.80
2018-12-16T20:37:21.340Z,19.77
2018-12-16T20:39:50.143Z,19.50
2018-12-16T20:42:19.376Z,18.10
2018-12-16T20:44:48.797Z,18.70
2018-12-16T20:47:18.544Z,18.57
2018-12-16T20:49:47.786Z,19.53
2018-12-16T20:52:17.829Z,20.03
2018-12-16T20:54:47.018Z,19.27
2018-12-16T20:57:18.942Z,20.50
2018-12-16T20:59:47.669Z,21.57
2018-12-16T21:02:16.337Z,22.07
2018-12-16T21:04:45.333Z,21.43
2018-12-16T21:07:15.205Z,21.77
2018-12-16T21:09:44.456Z,20.83
2018-12-16T21:12:18.346Z,19.03
2018-12-16T21:14:52.091Z,19.50
2018-12-16T21:17:26.211Z,19.07
2018-12-16T21:19:55.842Z,18.63
2018-12-16T21:22:25.391Z,18.67
2018-12-16T21:24:54.972Z,19.40
2018-12-16T21:27:26.160Z,20.03
2018-12-16T21:29:55.104Z,17.73
2018-12-16T21:32:23.667Z,19.10
2018-12-16T21:34:52.208Z,19.37
2018-12-16T21:37:21.079Z,18.53
2018-12-16T21:39:50.187Z,18.17
2018-12-16T21:42:19.067Z,19.43
2018-12-16T21:44:49.884Z,21.37
2018-12-16T21:47:20.309Z,20.80
2018-12-16T21:49:48.841Z,21.30
2018-12-16T21:52:17.530Z,22.47
2018-12-16T21:54:46.151Z,22.43
2018-12-16T21:57:14.798Z,20.90
2018-12-16T21:59:43.635Z,20.33
2018-12-16T22:02:12.363Z,18.70
2018-12-16T22:04:40.893Z,18.53
2018-12-16T22:07:09.403Z,18.10
2018-12-16T22:09:38.011Z,18.47
2018-12-16T22:12:06.567Z,20.20
2018-12-16T22:14:35.192Z,20.17
2018-12-16T22:17:03.697Z,21.27
2018-12-16T22:19:32.201Z,20.47
2018-12-16T22:22:00.717Z,21.87
2018-12-16T22:24:29.221Z,22.43
2018-12-16T22:26:57.705Z,22.97
2018-12-16T22:29:26.178Z,23.67
2018-12-16T22:31:54.763Z,22.47
2018-12-16T22:34:23.229Z,21.30
2018-12-16T22:36:51.659Z,19.53
2018-12-16T22:39:20.148Z,18.10
2018-12-16T22:41:48.661Z,19.67
2018-12-16T22:44:17.129Z,19.60
2018-12-16T22:46:45.588Z,19.47
2018-12-16T22:49:14.039Z,18.67
2018-12-16T22:51:42.581Z,17.77
2018-12-16T22:54:11.027Z,20.30
2018-12-16T22:56:39.466Z,19.90
2018-12-16T22:59:07.906Z,19.10
2018-12-16T23:01:36.377Z,20.67
2018-12-16T23:04:04.833Z,19.87
2018-12-16T23:06:33.343Z,22.53
2018-12-16T23:09:01.768Z,22.33
2018-12-16T23:11:30.227Z,22.43
2018-12-16T23:13:58.695Z,24.33
2018-12-16T23:16:27.117Z,24.10
2018-12-16T23:18:55.543Z,22.70
2018-12-16T23:21:23.976Z,23.30
2018-12-16T23:23:52.400Z,24.80
2018-12-16T23:26:20.851Z,24.87
2018-12-16T23:28:49.263Z,24.97
2018-12-16T23:31:17.783Z,25.80
2018-12-16T23:33:46.315Z,25.63
2018-12-16T23:36:14.745Z,26.60
2018-12-16T23:38:43.163Z,26.20
2018-12-16T23:41:11.611Z,28.43
2018-12-16T23:43:40.031Z,27.33
2018-12-16T23:46:08.465Z,27.70
2018-12-16T23:48:37.107Z,26.23
2018-12-16T23:51:05.529Z,27.73
2018-12-16T23:53:33.993Z,27.57
2018-12-16T23:56:02.441Z,29.53
2018-12-16T23:58:30.872Z,28.80
